Time;durP1;ratioP1;P1;durP2;ratioP2;P2;SDS_P1;SDS_P2;PMS_P1;PMS_P2;Temp;Humidity;BMP_temperature;BMP_pressure;BME280_temperature;BME280_humidity;BME280_pressure;Samples;Min_cycle;Max_cycle;Signal;HPM_P1;HPM_P2
2023/01/27 00:01:10;;;;;;;4.40;3.20;;;3.20;99.90;;;;;;4996403;28;20469;-74
2023/01/27 00:03:38;;;;;;;4.05;3.05;;;3.20;99.90;;;;;;5014032;28;20229;-74
2023/01/27 00:06:10;;;;;;;3.88;2.28;;;3.20;99.90;;;;;;4997888;28;20216;-75
2023/01/27 00:08:40;;;;;;;3.35;2.65;;;3.20;99.90;;;;;;5010435;28;20252;-75
2023/01/27 00:13:55;;;;;;;4.18;2.70;;;3.20;99.90;;;;;;5018310;28;20245;-75
2023/01/27 00:16:24;;;;;;;3.75;2.00;;;3.20;99.90;;;;;;4997988;28;20568;-74
2023/01/27 00:18:52;;;;;;;4.10;2.40;;;3.20;99.90;;;;;;5003206;28;20963;-72
2023/01/27 00:26:57;;;;;;;3.28;2.58;;;3.20;99.90;;;;;;5007028;28;20700;-75
2023/01/27 00:29:26;;;;;;;4.38;2.65;;;3.20;99.90;;;;;;4986317;28;20224;-73
2023/01/27 00:34:40;;;;;;;3.70;2.40;;;3.20;99.90;;;;;;5012081;28;20766;-74
2023/01/27 00:37:09;;;;;;;3.30;2.20;;;3.20;99.90;;;;;;5021210;28;20623;-75
2023/01/27 00:39:39;;;;;;;4.10;2.55;;;3.20;99.90;;;;;;5022004;28;20228;-73
2023/01/27 00:42:10;;;;;;;3.00;2.15;;;3.20;99.90;;;;;;4997596;28;20747;-73
2023/01/27 00:45:47;;;;;;;3.70;2.70;;;3.20;99.90;;;;;;5005033;28;20681;-74
2023/01/27 00:47:27;;;;;;;5.65;2.85;;;3.20;99.90;;;;;;4993305;28;20310;-74
2023/01/27 00:49:55;;;;;;;4.10;2.75;;;3.20;99.90;;;;;;5013964;28;20255;-73
2023/01/27 00:52:24;;;;;;;3.90;2.35;;;3.20;99.90;;;;;;5022939;28;20209;-74
2023/01/27 00:54:53;;;;;;;4.18;2.63;;;3.20;99.90;;;;;;4996478;28;20256;-73
2023/01/27 00:57:22;;;;;;;4.53;2.35;;;3.20;99.90;;;;;;4990519;28;20201;-73
2023/01/27 00:59:50;;;;;;;3.45;2.13;;;3.20;99.90;;;;;;5015592;28;20292;-73
2023/01/27 01:02:19;;;;;;;3.47;2.00;;;3.20;99.90;;;;;;4996631;28;20205;-74
2023/01/27 01:04:47;;;;;;;3.28;2.13;;;3.20;99.90;;;;;;5003985;28;20229;-73
2023/01/27 01:07:15;;;;;;;3.65;2.55;;;3.20;99.90;;;;;;4990681;28;20248;-73
2023/01/27 01:09:44;;;;;;;6.03;2.20;;;3.20;99.90;;;;;;5012385;28;20213;-73
2023/01/27 01:12:14;;;;;;;4.18;2.50;;;3.20;99.90;;;;;;5017702;28;20643;-73
2023/01/27 01:14:42;;;;;;;4.13;2.95;;;3.20;99.90;;;;;;4994192;28;20593;-72
2023/01/27 01:17:10;;;;;;;3.33;2.13;;;3.20;99.90;;;;;;4995196;28;20256;-73
2023/01/27 01:19:39;;;;;;;3.88;3.13;;;3.20;99.90;;;;;;5003777;28;20324;-73
2023/01/27 01:22:07;;;;;;;3.05;2.47;;;3.20;99.90;;;;;;4997804;28;20245;-74
2023/01/27 01:24:35;;;;;;;3.67;2.20;;;3.20;99.90;;;;;;4994091;28;20937;-75
2023/01/27 01:27:07;;;;;;;2.72;1.95;;;3.20;99.90;;;;;;5011993;28;20221;-74
2023/01/27 01:29:36;;;;;;;2.60;2.40;;;3.20;99.90;;;;;;5002240;28;20324;-74
2023/01/27 01:32:08;;;;;;;5.25;1.80;;;3.20;99.90;;;;;;4993540;28;20202;-75
2023/01/27 01:34:37;;;;;;;2.15;1.95;;;3.20;99.90;;;;;;5020651;28;20240;-73
2023/01/27 01:37:05;;;;;;;3.65;2.35;;;3.20;99.90;;;;;;4996472;28;20198;-75
2023/01/27 01:39:35;;;;;;;2.35;1.85;;;3.20;99.90;;;;;;4996998;28;20579;-74
2023/01/27 01:42:03;;;;;;;2.67;1.90;;;3.20;99.90;;;;;;5006972;28;20200;-73
2023/01/27 01:44:32;;;;;;;4.40;2.60;;;3.30;99.90;;;;;;4994531;28;20277;-73
2023/01/27 01:47:02;;;;;;;3.20;2.10;;;3.20;99.90;;;;;;5011801;28;20268;-72
2023/01/27 01:49:34;;;;;;;2.80;2.30;;;3.20;99.90;;;;;;5011098;28;20675;-73
2023/01/27 01:52:08;;;;;;;3.45;2.15;;;3.20;99.90;;;;;;5009325;28;20244;-74
2023/01/27 01:54:41;;;;;;;3.67;2.38;;;3.20;99.90;;;;;;5008189;28;20254;-73
2023/01/27 01:57:13;;;;;;;5.45;2.70;;;3.20;99.90;;;;;;4995027;28;20205;-75
2023/01/27 01:59:46;;;;;;;2.85;1.90;;;3.20;99.90;;;;;;4994806;28;20221;-74
2023/01/27 02:02:20;;;;;;;3.72;2.42;;;3.20;99.90;;;;;;5000066;28;20977;-74
2023/01/27 02:04:56;;;;;;;2.72;2.30;;;3.20;99.90;;;;;;4995627;28;20248;-72
2023/01/27 02:07:31;;;;;;;3.38;2.30;;;3.20;99.90;;;;;;5004842;28;20208;-74
2023/01/27 02:10:00;;;;;;;3.60;2.80;;;3.30;99.90;;;;;;4996911;28;20248;-74
2023/01/27 02:12:30;;;;;;;6.13;2.95;;;3.20;99.90;;;;;;5019102;28;20678;-74
2023/01/27 02:14:59;;;;;;;2.20;2.00;;;3.30;99.90;;;;;;4997355;28;20232;-74
2023/01/27 02:17:29;;;;;;;4.07;3.00;;;3.20;99.90;;;;;;5000228;28;20641;-73
2023/01/27 02:20:06;;;;;;;4.60;2.85;;;3.20;99.90;;;;;;4996168;28;20223;-73
2023/01/27 02:22:41;;;;;;;4.38;2.65;;;3.20;99.90;;;;;;4994081;28;20220;-74
2023/01/27 02:25:19;;;;;;;6.78;3.10;;;3.20;99.90;;;;;;5019405;28;20303;-69
2023/01/27 02:27:48;;;;;;;3.70;3.08;;;3.30;99.90;;;;;;5008672;28;20202;-69
2023/01/27 02:30:17;;;;;;;3.85;2.55;;;3.30;99.90;;;;;;4996052;28;20579;-69
2023/01/27 02:32:45;;;;;;;5.03;3.03;;;3.20;99.90;;;;;;5007787;28;20202;-68
2023/01/27 02:35:20;;;;;;;3.35;2.53;;;3.30;99.90;;;;;;4998543;28;21519;-69
2023/01/27 02:37:51;;;;;;;5.10;3.40;;;3.30;99.90;;;;;;4999679;28;20203;-69
2023/01/27 02:40:20;;;;;;;4.32;2.97;;;3.30;99.90;;;;;;5003579;28;20230;-69
2023/01/27 02:42:53;;;;;;;6.10;3.80;;;3.20;99.90;;;;;;5003025;28;20194;-68
2023/01/27 02:45:21;;;;;;;3.88;2.75;;;3.20;99.90;;;;;;4987167;28;20226;-69
2023/01/27 02:47:50;;;;;;;4.57;3.30;;;3.20;99.90;;;;;;5013346;28;20249;-68
2023/01/27 02:50:19;;;;;;;5.38;3.40;;;3.20;99.90;;;;;;4986673;28;20221;-70
2023/01/27 02:52:47;;;;;;;4.47;3.45;;;3.20;99.90;;;;;;4987033;28;20293;-69
2023/01/27 02:55:17;;;;;;;4.68;3.05;;;3.30;99.90;;;;;;4987230;28;20315;-69
2023/01/27 02:57:45;;;;;;;3.75;2.83;;;3.20;99.90;;;;;;5016953;28;20220;-68
2023/01/27 03:00:34;;;;;;;10.32;2.83;;;3.30;99.90;;;;;;5008893;28;20252;-68
2023/01/27 03:03:03;;;;;;;4.65;2.95;;;3.20;99.90;;;;;;5009706;28;20252;-68
2023/01/27 03:05:31;;;;;;;3.45;2.95;;;3.30;99.90;;;;;;4989481;28;20201;-68
2023/01/27 03:08:00;;;;;;;4.53;3.10;;;3.20;99.90;;;;;;5006595;28;20618;-68
2023/01/27 03:10:28;;;;;;;5.05;2.70;;;3.20;99.90;;;;;;4998719;28;20242;-68
2023/01/27 03:12:58;;;;;;;4.03;3.20;;;3.20;99.90;;;;;;4998170;28;20730;-70
2023/01/27 03:18:16;;;;;;;4.13;3.10;;;3.20;99.90;;;;;;5015681;28;20310;-68
2023/01/27 03:20:49;;;;;;;5.55;2.95;;;3.20;99.90;;;;;;4996955;28;20682;-67
2023/01/27 03:23:19;;;;;;;4.55;3.00;;;3.30;99.90;;;;;;5010234;28;20654;-68
2023/01/27 03:25:51;;;;;;;3.20;2.90;;;3.20;99.90;;;;;;5012219;28;20235;-70
2023/01/27 03:28:19;;;;;;;5.63;3.20;;;3.20;99.90;;;;;;5015803;28;20593;-69
2023/01/27 03:31:18;;;;;;;4.95;3.17;;;3.20;99.90;;;;;;5005904;28;20192;-69
2023/01/27 03:33:53;;;;;;;5.93;3.58;;;3.30;99.90;;;;;;5008897;28;20582;-67
2023/01/27 03:47:38;;;;;;;8.27;3.97;;;3.20;99.90;;;;;;4989701;28;20202;-69
2023/01/27 03:50:12;;;;;;;5.30;3.20;;;3.30;99.90;;;;;;4996992;28;20606;-67
2023/01/27 03:53:01;;;;;;;3.95;3.13;;;3.30;99.90;;;;;;5017496;28;20209;-69
2023/01/27 03:55:29;;;;;;;3.90;2.92;;;3.30;99.90;;;;;;5001352;28;20751;-69
2023/01/27 03:58:12;;;;;;;4.90;3.78;;;3.20;99.90;;;;;;5016237;28;20710;-69
2023/01/27 04:00:41;;;;;;;10.80;3.75;;;3.20;99.90;;;;;;4996888;28;20263;-67
2023/01/27 04:08:43;;;;;;;3.42;2.33;;;3.30;99.90;;;;;;4999327;28;20201;-67
2023/01/27 04:14:01;;;;;;;3.30;2.72;;;3.30;99.90;;;;;;5012243;28;20697;-67
2023/01/27 04:16:30;;;;;;;3.60;3.10;;;3.30;99.90;;;;;;5017981;28;20721;-68
2023/01/27 04:18:59;;;;;;;2.63;1.85;;;3.20;99.90;;;;;;5004085;28;20624;-69
2023/01/27 04:21:29;;;;;;;4.25;2.72;;;3.20;99.90;;;;;;5001314;28;20584;-69
2023/01/27 04:23:57;;;;;;;2.42;2.15;;;3.20;99.90;;;;;;5003246;28;20249;-69
2023/01/27 04:26:31;;;;;;;5.25;2.90;;;3.20;99.90;;;;;;5016334;28;20241;-69
2023/01/27 04:29:00;;;;;;;3.13;2.40;;;3.30;99.90;;;;;;5014028;28;20208;-67
2023/01/27 04:31:29;;;;;;;4.88;2.30;;;3.20;99.90;;;;;;4997152;28;20743;-68
2023/01/27 04:33:57;;;;;;;4.18;2.70;;;3.30;99.90;;;;;;5015801;28;20250;-67
2023/01/27 04:36:26;;;;;;;4.32;2.75;;;3.20;99.90;;;;;;4993963;28;20693;-69
2023/01/27 04:38:55;;;;;;;2.95;2.35;;;3.20;99.90;;;;;;4993923;28;20186;-70
2023/01/27 04:41:24;;;;;;;3.75;3.03;;;3.30;99.90;;;;;;5000761;28;20500;-69
2023/01/27 04:43:52;;;;;;;3.95;2.60;;;3.30;99.90;;;;;;4993076;28;20233;-67
2023/01/27 04:46:21;;;;;;;4.25;2.90;;;3.20;99.90;;;;;;5006583;28;20223;-68
2023/01/27 04:48:49;;;;;;;3.70;2.67;;;3.20;99.90;;;;;;5006495;28;20225;-68
2023/01/27 04:51:17;;;;;;;6.22;2.20;;;3.30;99.90;;;;;;4993265;28;20186;-69
2023/01/27 04:53:46;;;;;;;3.72;2.47;;;3.30;99.90;;;;;;4994167;28;20230;-69
2023/01/27 04:56:22;;;;;;;4.00;3.13;;;3.30;99.90;;;;;;5007102;28;20210;-70
2023/01/27 04:58:51;;;;;;;3.00;2.47;;;3.30;99.90;;;;;;5005832;28;20190;-68
2023/01/27 05:01:19;;;;;;;5.00;2.55;;;3.30;99.90;;;;;;5014323;28;20717;-67
2023/01/27 05:03:47;;;;;;;6.70;3.28;;;3.30;99.90;;;;;;4991782;28;20649;-69
2023/01/27 05:06:16;;;;;;;4.10;2.60;;;3.30;99.90;;;;;;4996346;28;20743;-67
2023/01/27 05:08:45;;;;;;;2.72;2.35;;;3.30;99.90;;;;;;5003241;28;20604;-69
2023/01/27 05:11:13;;;;;;;3.92;2.50;;;3.30;99.90;;;;;;5009146;28;20213;-70
2023/01/27 05:13:43;;;;;;;3.35;2.60;;;3.30;99.90;;;;;;5002213;28;20230;-67
2023/01/27 05:16:13;;;;;;;3.47;2.40;;;3.30;99.90;;;;;;4991126;28;20267;-67
2023/01/27 05:18:42;;;;;;;4.97;2.58;;;3.30;99.90;;;;;;4993496;28;20322;-68
2023/01/27 05:21:13;;;;;;;3.85;2.28;;;3.30;99.90;;;;;;4992639;28;20319;-69
2023/01/27 05:23:42;;;;;;;2.97;2.10;;;3.20;99.90;;;;;;5003402;28;20317;-69
2023/01/27 05:26:13;;;;;;;3.05;2.45;;;3.30;99.90;;;;;;5003376;28;20187;-68
2023/01/27 05:28:45;;;;;;;3.05;2.40;;;3.20;99.90;;;;;;4996976;28;20285;-68
2023/01/27 05:31:15;;;;;;;4.13;2.67;;;3.30;99.90;;;;;;4996320;28;20232;-68
2023/01/27 05:33:43;;;;;;;2.75;2.38;;;3.30;99.90;;;;;;5000510;28;20313;-69
2023/01/27 05:36:13;;;;;;;5.57;2.40;;;3.30;99.90;;;;;;4999263;28;20207;-69
2023/01/27 05:38:42;;;;;;;3.25;2.30;;;3.30;99.90;;;;;;5018476;28;20600;-69
2023/01/27 05:41:12;;;;;;;3.25;2.13;;;3.30;99.90;;;;;;4997858;28;20217;-67
2023/01/27 05:43:44;;;;;;;4.43;2.25;;;3.30;99.90;;;;;;4992803;28;20232;-68
2023/01/27 05:46:14;;;;;;;3.20;2.08;;;3.30;99.90;;;;;;5003104;28;20204;-69
2023/01/27 05:48:45;;;;;;;2.95;2.08;;;3.30;99.90;;;;;;5008541;28;20427;-68
2023/01/27 05:51:14;;;;;;;3.58;2.03;;;3.30;99.90;;;;;;5005340;28;20737;-67
2023/01/27 05:53:43;;;;;;;2.85;1.67;;;3.30;99.90;;;;;;4988492;28;20328;-70
2023/01/27 05:56:13;;;;;;;2.20;2.00;;;3.30;99.90;;;;;;5000943;28;20223;-68
2023/01/27 05:58:44;;;;;;;4.18;2.20;;;3.30;99.90;;;;;;4995564;28;20257;-69
2023/01/27 06:01:14;;;;;;;3.03;2.47;;;3.30;99.90;;;;;;5000010;28;20198;-69
2023/01/27 06:03:43;;;;;;;3.08;2.35;;;3.30;99.90;;;;;;5000642;28;20218;-69
2023/01/27 06:06:12;;;;;;;2.90;2.22;;;3.30;99.90;;;;;;4993820;28;20843;-70
2023/01/27 06:08:41;;;;;;;3.63;2.40;;;3.30;99.90;;;;;;5002265;28;20641;-67
2023/01/27 06:11:09;;;;;;;2.78;2.40;;;3.30;99.90;;;;;;5014494;28;20188;-67
2023/01/27 06:13:39;;;;;;;2.05;1.85;;;3.30;99.90;;;;;;5002101;28;20325;-68
2023/01/27 06:16:11;;;;;;;2.33;1.95;;;3.30;99.90;;;;;;5006103;28;20746;-67
2023/01/27 06:18:40;;;;;;;5.03;2.33;;;3.30;99.90;;;;;;4999663;28;20565;-67
2023/01/27 06:21:10;;;;;;;3.22;2.47;;;3.30;99.90;;;;;;5009101;28;20601;-67
2023/01/27 06:23:39;;;;;;;2.40;1.35;;;3.20;99.90;;;;;;5009935;28;20257;-68
2023/01/27 06:26:09;;;;;;;2.40;1.50;;;3.30;99.90;;;;;;5013217;28;20247;-69
2023/01/27 06:28:38;;;;;;;1.95;1.75;;;3.30;99.90;;;;;;4997493;28;20664;-69
2023/01/27 06:31:11;;;;;;;3.00;2.20;;;3.30;99.90;;;;;;4992877;28;20209;-68
2023/01/27 06:33:40;;;;;;;4.25;2.50;;;3.30;99.90;;;;;;5010896;28;20711;-68
2023/01/27 06:36:11;;;;;;;4.28;2.08;;;3.30;99.90;;;;;;4994794;28;20204;-67
2023/01/27 06:38:39;;;;;;;3.42;2.15;;;3.30;99.90;;;;;;4999254;28;20193;-68
2023/01/27 06:41:08;;;;;;;3.67;2.17;;;3.30;99.90;;;;;;5005033;28;20194;-68
2023/01/27 06:43:36;;;;;;;2.83;2.35;;;3.30;99.90;;;;;;5006275;28;20311;-68
2023/01/27 06:46:05;;;;;;;2.97;2.30;;;3.30;99.90;;;;;;4999005;28;20610;-67
2023/01/27 06:48:36;;;;;;;4.05;2.20;;;3.30;99.90;;;;;;4998897;28;20192;-69
2023/01/27 06:51:05;;;;;;;3.10;2.10;;;3.30;99.90;;;;;;4998142;28;20281;-69
2023/01/27 06:53:36;;;;;;;3.22;1.83;;;3.30;99.90;;;;;;5023196;28;20209;-69
2023/01/27 06:56:05;;;;;;;2.90;2.60;;;3.30;99.90;;;;;;5004217;28;20208;-69
2023/01/27 06:58:34;;;;;;;1.85;1.35;;;3.30;99.90;;;;;;4998172;28;20719;-67
2023/01/27 07:01:05;;;;;;;2.28;2.00;;;3.30;99.90;;;;;;4990328;28;20289;-68
2023/01/27 07:03:35;;;;;;;3.38;1.77;;;3.30;99.90;;;;;;5014486;28;20226;-68
2023/01/27 07:06:04;;;;;;;4.25;2.65;;;3.30;99.90;;;;;;4999651;28;20189;-68
2023/01/27 07:08:32;;;;;;;3.50;2.45;;;3.30;99.90;;;;;;4991191;28;20225;-68
2023/01/27 07:11:03;;;;;;;2.30;1.90;;;3.30;99.90;;;;;;5004397;28;20685;-68
2023/01/27 07:13:31;;;;;;;2.15;1.80;;;3.30;99.90;;;;;;4993587;28;20259;-69
2023/01/27 07:16:00;;;;;;;3.28;1.98;;;3.30;99.90;;;;;;5005808;28;20268;-69
2023/01/27 07:18:28;;;;;;;3.35;2.30;;;3.30;99.90;;;;;;4987217;28;20221;-70
2023/01/27 07:20:58;;;;;;;2.28;2.08;;;3.30;99.90;;;;;;5005202;28;20225;-67
2023/01/27 07:23:26;;;;;;;1.55;1.40;;;3.30;99.90;;;;;;5015926;28;20696;-68
2023/01/27 07:25:55;;;;;;;2.85;1.92;;;3.30;99.90;;;;;;5006099;28;20197;-68
2023/01/27 07:28:23;;;;;;;2.33;1.55;;;3.30;99.90;;;;;;5001491;28;20694;-68
2023/01/27 07:30:52;;;;;;;2.08;1.65;;;3.30;99.90;;;;;;5003743;28;20621;-69
2023/01/27 07:33:20;;;;;;;1.92;1.50;;;3.30;99.90;;;;;;5003334;28;20528;-67
2023/01/27 07:35:49;;;;;;;2.75;2.22;;;3.30;99.90;;;;;;4992178;28;20194;-68
2023/01/27 07:38:19;;;;;;;3.70;2.10;;;3.30;99.90;;;;;;5017877;28;20217;-69
2023/01/27 07:40:47;;;;;;;2.40;1.83;;;3.30;99.90;;;;;;4991133;28;20228;-69
2023/01/27 07:43:16;;;;;;;2.92;1.77;;;3.30;99.90;;;;;;5004574;28;20575;-68
2023/01/27 07:45:47;;;;;;;3.70;2.42;;;3.30;99.90;;;;;;4993891;28;20285;-68
2023/01/27 07:48:16;;;;;;;2.70;1.95;;;3.30;99.90;;;;;;5004048;28;20595;-68
2023/01/27 07:50:44;;;;;;;2.70;2.30;;;3.30;99.90;;;;;;5006696;28;20632;-67
2023/01/27 07:53:13;;;;;;;2.08;1.80;;;3.30;99.90;;;;;;5006955;28;20715;-68
2023/01/27 07:55:43;;;;;;;4.82;3.25;;;3.30;99.90;;;;;;5021741;28;20600;-67
2023/01/27 07:58:11;;;;;;;2.70;2.20;;;3.30;99.90;;;;;;5006228;28;20197;-67
2023/01/27 08:00:40;;;;;;;2.85;2.00;;;3.30;99.90;;;;;;4994555;28;20296;-67
2023/01/27 08:03:20;;;;;;;3.38;2.47;;;3.30;99.90;;;;;;4998896;28;20224;-68
2023/01/27 08:05:48;;;;;;;3.45;2.10;;;3.30;99.90;;;;;;4998287;28;20209;-70
2023/01/27 08:08:17;;;;;;;2.50;1.80;;;3.30;99.90;;;;;;4987281;28;20230;-69
2023/01/27 08:10:50;;;;;;;3.60;2.42;;;3.30;99.90;;;;;;5011713;28;20201;-69
2023/01/27 08:13:18;;;;;;;4.18;2.00;;;3.30;99.90;;;;;;5014029;28;20210;-67
2023/01/27 08:15:46;;;;;;;2.33;2.08;;;3.30;99.90;;;;;;4999982;28;20203;-69
2023/01/27 08:18:15;;;;;;;3.47;2.85;;;3.30;99.90;;;;;;4992148;28;20256;-68
2023/01/27 08:20:43;;;;;;;4.10;2.60;;;3.30;99.90;;;;;;5018397;28;20584;-68
2023/01/27 08:23:13;;;;;;;2.35;1.90;;;3.30;99.90;;;;;;5014743;28;20221;-70
2023/01/27 08:25:41;;;;;;;2.50;2.20;;;3.30;99.90;;;;;;5015800;28;20229;-68
2023/01/27 08:28:11;;;;;;;3.83;2.50;;;3.30;99.90;;;;;;5023904;28;20285;-70
2023/01/27 08:30:40;;;;;;;6.10;3.33;;;3.30;99.90;;;;;;5016486;28;20289;-67
2023/01/27 08:33:08;;;;;;;3.55;2.65;;;3.30;99.90;;;;;;5000727;28;20212;-68
2023/01/27 08:35:37;;;;;;;2.17;1.98;;;3.30;99.90;;;;;;4997530;28;20193;-67
2023/01/27 08:38:06;;;;;;;3.03;1.90;;;3.30;99.90;;;;;;5005482;28;20207;-68
2023/01/27 08:40:34;;;;;;;4.50;2.88;;;3.30;99.90;;;;;;5004520;28;20687;-68
2023/01/27 08:43:03;;;;;;;2.35;2.15;;;3.30;99.90;;;;;;4986710;28;20280;-70
2023/01/27 08:45:33;;;;;;;3.75;2.42;;;3.30;99.90;;;;;;4992692;28;20605;-68
2023/01/27 08:48:02;;;;;;;3.58;2.95;;;3.30;99.90;;;;;;4994627;28;20202;-68
2023/01/27 08:50:31;;;;;;;4.68;2.75;;;3.30;99.90;;;;;;5015541;28;20203;-69
2023/01/27 08:53:00;;;;;;;2.50;1.88;;;3.30;99.90;;;;;;5001426;28;20208;-68
2023/01/27 08:55:30;;;;;;;2.80;2.60;;;3.30;99.90;;;;;;5012175;28;20194;-67
2023/01/27 08:57:59;;;;;;;2.97;2.67;;;3.30;99.90;;;;;;5005361;28;20210;-69
2023/01/27 09:00:27;;;;;;;2.70;2.05;;;3.30;99.90;;;;;;4992162;28;20220;-67
2023/01/27 09:02:57;;;;;;;2.53;2.10;;;3.30;99.90;;;;;;5001163;28;20229;-67
2023/01/27 09:05:25;;;;;;;2.92;2.28;;;3.30;99.90;;;;;;4999418;28;20229;-67
2023/01/27 09:07:53;;;;;;;5.30;3.28;;;3.30;99.90;;;;;;4999879;28;20233;-68
2023/01/27 09:10:22;;;;;;;2.80;2.03;;;3.30;99.90;;;;;;5023911;28;20226;-67
2023/01/27 09:12:51;;;;;;;3.00;2.10;;;3.30;99.90;;;;;;4998893;28;20202;-68
2023/01/27 09:15:19;;;;;;;4.43;3.45;;;3.30;99.90;;;;;;5023401;28;20766;-68
2023/01/27 09:17:47;;;;;;;4.15;3.20;;;3.30;99.90;;;;;;5003570;28;20288;-68
2023/01/27 09:20:17;;;;;;;5.00;3.00;;;3.30;99.90;;;;;;5005693;28;20615;-68
2023/01/27 09:22:46;;;;;;;3.72;2.42;;;3.30;99.90;;;;;;4996832;28;20594;-74
2023/01/27 09:25:16;;;;;;;4.00;2.53;;;3.30;99.90;;;;;;5016714;28;20810;-76
2023/01/27 09:27:45;;;;;;;3.65;2.85;;;3.30;99.90;;;;;;5009379;28;20201;-74
2023/01/27 09:30:15;;;;;;;3.92;2.90;;;3.30;99.90;;;;;;4998959;28;20222;-73
2023/01/27 09:32:44;;;;;;;3.08;2.38;;;3.40;99.90;;;;;;5005132;28;20665;-75
2023/01/27 09:35:12;;;;;;;5.25;3.00;;;3.30;99.90;;;;;;5007093;28;20482;-67
2023/01/27 09:37:45;;;;;;;4.88;2.90;;;3.40;99.90;;;;;;5001730;28;20228;-68
2023/01/27 09:40:25;;;;;;;3.15;2.35;;;3.40;99.90;;;;;;5004124;28;20226;-69
2023/01/27 09:43:34;;;;;;;4.65;2.90;;;3.30;99.90;;;;;;5013729;28;20233;-68
2023/01/27 09:46:23;;;;;;;2.88;2.55;;;3.30;99.90;;;;;;5012005;28;20235;-68
2023/01/27 09:49:18;;;;;;;3.00;2.60;;;3.40;99.90;;;;;;4990319;28;20229;-68
2023/01/27 09:51:56;;;;;;;4.60;2.85;;;3.30;99.90;;;;;;5012582;28;20720;-67
2023/01/27 09:54:47;;;;;;;2.58;2.25;;;3.40;99.90;;;;;;5005868;28;20256;-69
2023/01/27 09:57:24;;;;;;;3.80;3.20;;;3.30;99.90;;;;;;5013794;28;20968;-67
2023/01/27 10:00:12;;;;;;;2.50;2.30;;;3.30;99.90;;;;;;5002798;28;20243;-69
2023/01/27 10:02:59;;;;;;;3.42;2.33;;;3.40;99.90;;;;;;5019086;28;20206;-68
2023/01/27 10:05:53;;;;;;;3.92;2.50;;;3.30;99.90;;;;;;5008609;28;20275;-68
2023/01/27 10:08:39;;;;;;;2.80;2.03;;;3.40;99.90;;;;;;5003069;28;20221;-67
2023/01/27 10:11:18;;;;;;;2.10;1.85;;;3.30;99.90;;;;;;5019025;28;20724;-67
2023/01/27 10:13:59;;;;;;;3.05;2.05;;;3.40;99.90;;;;;;5006355;28;20566;-67
2023/01/27 10:16:52;;;;;;;3.22;2.40;;;3.30;99.90;;;;;;5006441;28;20640;-67
2023/01/27 10:19:41;;;;;;;2.47;2.28;;;3.30;99.90;;;;;;5017415;28;20282;-69
2023/01/27 10:22:18;;;;;;;4.93;2.80;;;3.40;99.90;;;;;;5017995;28;20198;-66
2023/01/27 10:25:00;;;;;;;3.45;2.47;;;3.30;99.90;;;;;;4987754;28;20232;-68
2023/01/27 10:27:35;;;;;;;2.85;2.10;;;3.30;99.90;;;;;;5014012;28;20658;-68
2023/01/27 10:30:10;;;;;;;2.50;2.28;;;3.40;99.90;;;;;;5016134;28;20271;-65
2023/01/27 10:32:44;;;;;;;2.85;2.47;;;3.40;99.90;;;;;;5009814;28;20200;-68
2023/01/27 10:35:19;;;;;;;2.22;2.03;;;3.40;99.90;;;;;;4996928;28;20221;-67
2023/01/27 10:37:59;;;;;;;3.00;2.00;;;3.40;99.90;;;;;;5001174;28;20572;-68
2023/01/27 10:40:37;;;;;;;4.18;2.60;;;3.40;99.90;;;;;;4993107;28;20737;-67
2023/01/27 10:43:12;;;;;;;3.97;2.63;;;3.40;99.90;;;;;;4998649;28;20222;-68
2023/01/27 10:45:46;;;;;;;3.65;2.67;;;3.40;99.90;;;;;;5001570;28;20217;-68
2023/01/27 10:48:25;;;;;;;4.90;2.55;;;3.40;99.90;;;;;;5008628;28;20230;-67
2023/01/27 10:50:59;;;;;;;3.40;2.67;;;3.40;99.90;;;;;;4996195;28;20186;-73
2023/01/27 10:53:34;;;;;;;3.42;2.35;;;3.40;99.90;;;;;;4996023;28;20313;-74
2023/01/27 10:56:08;;;;;;;4.20;3.33;;;3.40;99.90;;;;;;4993796;28;20200;-74
2023/01/27 10:58:51;;;;;;;4.85;3.05;;;3.40;99.90;;;;;;5009165;28;20271;-76
2023/01/27 11:01:25;;;;;;;4.20;2.90;;;3.40;99.90;;;;;;5017279;28;20220;-73
2023/01/27 11:03:58;;;;;;;7.20;3.28;;;3.40;99.90;;;;;;4987762;28;20637;-74
2023/01/27 11:06:30;;;;;;;3.40;2.85;;;3.50;99.90;;;;;;5001421;28;20663;-74
2023/01/27 11:09:08;;;;;;;3.50;3.17;;;3.40;99.90;;;;;;4990675;28;20221;-74
2023/01/27 11:14:28;;;;;;;3.33;2.70;;;3.50;99.90;;;;;;5018655;28;20218;-73
2023/01/27 11:17:03;;;;;;;3.33;2.95;;;3.40;99.90;;;;;;5013033;28;20192;-72
2023/01/27 11:19:50;;;;;;;3.53;2.92;;;3.40;99.90;;;;;;4991623;28;20225;-75
2023/01/27 11:22:22;;;;;;;4.15;2.72;;;3.40;99.90;;;;;;5006652;28;20197;-73
2023/01/27 11:24:59;;;;;;;4.50;2.60;;;3.40;99.90;;;;;;5005837;28;20729;-74
2023/01/27 11:27:41;;;;;;;4.10;2.75;;;3.40;99.90;;;;;;4999354;28;20203;-73
2023/01/27 11:30:16;;;;;;;4.32;2.60;;;3.40;99.90;;;;;;4994875;28;20254;-74
2023/01/27 11:32:57;;;;;;;4.25;2.60;;;3.40;99.90;;;;;;5007591;28;20937;-75
2023/01/27 11:35:25;;;;;;;3.70;2.90;;;3.40;99.90;;;;;;5018596;28;20257;-75
2023/01/27 11:37:54;;;;;;;4.28;3.13;;;3.40;99.90;;;;;;5016788;28;20193;-74
2023/01/27 11:40:42;;;;;;;3.25;2.38;;;3.40;99.90;;;;;;5009510;28;20257;-73
2023/01/27 11:43:15;;;;;;;3.72;2.58;;;3.40;99.90;;;;;;5013685;28;20239;-74
2023/01/27 11:45:46;;;;;;;3.13;2.28;;;3.40;99.90;;;;;;5003523;28;20256;-74
2023/01/27 11:48:17;;;;;;;2.90;2.60;;;3.40;99.90;;;;;;5006529;28;20200;-74
2023/01/27 11:50:46;;;;;;;2.92;2.60;;;3.40;99.90;;;;;;4995823;28;20660;-75
2023/01/27 11:53:23;;;;;;;3.75;2.72;;;3.40;99.90;;;;;;5023538;28;20333;-74
2023/01/27 11:55:56;;;;;;;3.55;2.33;;;3.40;99.90;;;;;;5018075;28;20190;-73
2023/01/27 11:58:27;;;;;;;2.90;2.38;;;3.40;99.90;;;;;;5015176;28;20192;-74
2023/01/27 12:01:00;;;;;;;4.10;2.80;;;3.40;99.90;;;;;;5012099;28;20813;-75
2023/01/27 12:03:43;;;;;;;2.35;2.03;;;3.40;99.90;;;;;;5006137;28;20221;-73
2023/01/27 12:06:15;;;;;;;3.60;2.55;;;3.40;99.90;;;;;;5000888;28;20216;-74
2023/01/27 12:08:45;;;;;;;3.50;2.47;;;3.40;99.90;;;;;;4988848;28;20204;-73
2023/01/27 12:11:19;;;;;;;3.50;2.75;;;3.40;99.90;;;;;;5010386;28;20194;-74
2023/01/27 12:13:49;;;;;;;2.97;2.63;;;3.40;99.90;;;;;;5002560;28;20224;-73
2023/01/27 12:16:20;;;;;;;2.78;2.30;;;3.40;99.90;;;;;;4996961;28;20190;-74
2023/01/27 12:18:53;;;;;;;3.50;2.60;;;3.40;99.90;;;;;;4999556;28;20718;-75
2023/01/27 12:21:34;;;;;;;2.78;2.20;;;3.40;99.90;;;;;;5005432;28;20291;-75
2023/01/27 12:24:03;;;;;;;3.08;2.58;;;3.40;99.90;;;;;;5021388;28;20232;-74
2023/01/27 12:26:37;;;;;;;4.57;3.58;;;3.50;99.90;;;;;;4996561;28;20290;-73
2023/01/27 12:29:13;;;;;;;5.47;3.28;;;3.50;99.90;;;;;;4997184;28;20425;-77
2023/01/27 12:31:47;;;;;;;3.08;2.78;;;3.50;99.90;;;;;;4995763;28;20285;-74
2023/01/27 12:34:24;;;;;;;4.50;3.05;;;3.50;99.90;;;;;;5001999;28;20230;-74
2023/01/27 12:36:54;;;;;;;3.55;3.00;;;3.50;99.90;;;;;;4995435;28;20537;-73
2023/01/27 12:39:41;;;;;;;3.40;2.40;;;3.50;99.90;;;;;;4994615;28;20228;-72
2023/01/27 12:42:39;;;;;;;3.17;2.42;;;3.50;99.90;;;;;;5017839;28;20708;-74
2023/01/27 12:45:26;;;;;;;3.30;2.45;;;3.50;99.90;;;;;;4998924;28;20225;-72
2023/01/27 12:48:02;;;;;;;4.32;2.50;;;3.50;99.90;;;;;;5016070;28;20221;-75
2023/01/27 12:50:32;;;;;;;3.70;2.28;;;3.50;99.90;;;;;;5007916;28;20651;-74
2023/01/27 12:53:06;;;;;;;3.33;2.20;;;3.50;99.90;;;;;;5017941;28;20216;-75
2023/01/27 12:55:36;;;;;;;3.03;2.33;;;3.40;99.90;;;;;;4990130;28;20217;-74
2023/01/27 12:58:04;;;;;;;2.30;1.95;;;3.40;99.90;;;;;;4991200;28;20206;-68
2023/01/27 13:00:34;;;;;;;2.85;2.42;;;3.50;99.90;;;;;;4999411;28;20608;-69
2023/01/27 13:03:10;;;;;;;2.75;2.00;;;3.50;99.90;;;;;;5003063;28;20218;-68
2023/01/27 13:05:42;;;;;;;3.80;2.25;;;3.50;99.90;;;;;;5011900;28;20217;-70
2023/01/27 13:08:15;;;;;;;3.28;2.67;;;3.50;99.90;;;;;;4999657;28;20285;-67
2023/01/27 13:10:51;;;;;;;3.30;2.00;;;3.50;99.90;;;;;;5014689;28;20666;-68
2023/01/27 13:13:23;;;;;;;2.50;2.00;;;3.50;99.90;;;;;;5005516;28;20231;-66
2023/01/27 13:15:53;;;;;;;3.25;2.30;;;3.50;99.90;;;;;;5013047;28;20279;-68
2023/01/27 13:18:24;;;;;;;3.13;2.20;;;3.50;99.90;;;;;;5010832;28;20208;-69
2023/01/27 13:20:58;;;;;;;2.90;2.58;;;3.50;99.90;;;;;;5024185;28;20200;-68
2023/01/27 13:23:30;;;;;;;2.30;1.90;;;3.50;99.90;;;;;;5007069;28;20769;-69
2023/01/27 13:26:12;;;;;;;2.60;2.00;;;3.50;99.90;;;;;;5000142;28;20216;-67
2023/01/27 13:28:45;;;;;;;2.63;2.22;;;3.50;99.90;;;;;;5001143;28;20284;-69
2023/01/27 13:31:32;;;;;;;2.92;2.10;;;3.50;99.90;;;;;;4989833;28;20206;-69
2023/01/27 13:34:11;;;;;;;2.60;2.05;;;3.50;99.90;;;;;;5002109;28;20274;-67
2023/01/27 13:36:44;;;;;;;3.38;2.28;;;3.50;99.90;;;;;;4994749;28;20606;-68
2023/01/27 13:39:19;;;;;;;2.45;1.77;;;3.50;99.90;;;;;;5000153;28;20217;-67
2023/01/27 13:41:53;;;;;;;2.85;1.98;;;3.50;99.90;;;;;;5000932;28;20201;-69
2023/01/27 13:44:29;;;;;;;2.90;2.17;;;3.50;99.90;;;;;;5008881;28;20273;-69
2023/01/27 13:47:04;;;;;;;2.00;1.80;;;3.50;99.90;;;;;;5002460;28;20216;-67
2023/01/27 13:49:39;;;;;;;3.05;2.45;;;3.50;99.90;;;;;;4989137;28;20217;-68
2023/01/27 13:52:08;;;;;;;3.25;2.20;;;3.50;99.90;;;;;;4997984;28;20197;-69
2023/01/27 13:54:36;;;;;;;2.55;1.88;;;3.50;99.90;;;;;;5011730;28;20589;-69
2023/01/27 13:57:24;;;;;;;3.10;2.25;;;3.50;99.90;;;;;;4993585;28;20191;-67
2023/01/27 14:00:04;;;;;;;2.35;2.00;;;3.50;99.90;;;;;;5016353;28;20225;-69